createdAt,value
2022-08-10T00:00:56.081Z,23.31
2022-08-10T00:03:22.787Z,22.88
2022-08-10T00:05:53.208Z,22.98
2022-08-10T00:08:23.667Z,22.88
2022-08-10T00:10:55.275Z,22.97
2022-08-10T00:13:23.711Z,22.93
2022-08-10T00:15:55.205Z,23.21
2022-08-10T00:18:34.522Z,22.67
2022-08-10T00:21:05.421Z,22.63
2022-08-10T00:23:32.785Z,22.84
2022-08-10T00:26:00.224Z,23.17
2022-08-10T00:28:27.002Z,22.91
2022-08-10T00:31:12.411Z,23.29
2022-08-10T00:33:57.951Z,23.25
2022-08-10T00:36:29.596Z,22.89
2022-08-10T00:38:58.470Z,22.53
2022-08-10T00:41:25.422Z,23.31
2022-08-10T00:43:52.018Z,22.45
2022-08-10T00:46:18.601Z,22.67
2022-08-10T00:48:45.299Z,22.64
2022-08-10T00:51:43.206Z,22.60
2022-08-10T00:54:24.466Z,22.65
2022-08-10T00:57:16.255Z,22.96
2022-08-10T00:59:59.504Z,22.76
2022-08-10T01:02:28.332Z,22.48
2022-08-10T01:05:20.814Z,22.51
2022-08-10T01:08:27.989Z,22.23
2022-08-10T01:11:00.733Z,22.37
2022-08-10T01:13:30.051Z,22.12
2022-08-10T01:16:22.586Z,22.42
2022-08-10T01:18:55.605Z,22.54
2022-08-10T01:21:56.685Z,22.63
2022-08-10T01:24:42.779Z,22.43
2022-08-10T01:27:28.060Z,22.54
2022-08-10T01:29:58.362Z,22.49
2022-08-10T01:33:02.500Z,22.03
2022-08-10T01:35:40.321Z,22.27
2022-08-10T01:38:19.457Z,21.67
2022-08-10T01:40:55.357Z,22.21
2022-08-10T01:43:25.095Z,22.45
2022-08-10T01:45:57.258Z,22.25
2022-08-10T01:48:32.463Z,21.95
2022-08-10T01:51:13.037Z,21.74
2022-08-10T01:53:47.215Z,21.92
2022-08-10T01:56:35.037Z,22.23
2022-08-10T01:59:18.878Z,22.34
2022-08-10T02:01:50.440Z,21.81
2022-08-10T02:04:19.624Z,22.37
2022-08-10T02:06:52.574Z,21.85
2022-08-10T02:09:31.852Z,21.92
2022-08-10T02:12:07.336Z,21.82
2022-08-10T02:14:47.915Z,22.04
2022-08-10T02:17:57.295Z,22.36
2022-08-10T02:20:11.220Z,22.24
2022-08-10T02:22:40.143Z,22.18
2022-08-10T02:25:41.002Z,22.13
2022-08-10T02:27:59.434Z,22.24
2022-08-10T02:30:49.315Z,22.05
2022-08-10T02:33:29.912Z,22.11
2022-08-10T02:36:00.520Z,21.69
2022-08-10T02:38:58.092Z,22.17
2022-08-10T02:45:08.235Z,22.02
2022-08-10T02:45:18.526Z,22.67
2022-08-10T02:47:51.147Z,22.77
2022-08-10T02:50:31.929Z,22.78
2022-08-10T02:53:55.229Z,22.76
2022-08-10T02:56:12.445Z,22.77
2022-08-10T02:58:56.029Z,22.54
2022-08-10T03:01:27.323Z,22.60
2022-08-10T03:03:59.950Z,22.51
2022-08-10T03:06:34.516Z,22.43
2022-08-10T03:09:02.887Z,22.34
2022-08-10T03:12:35.760Z,22.86
2022-08-10T03:14:20.000Z,22.48
2022-08-10T03:16:46.991Z,22.57
2022-08-10T03:20:33.280Z,22.73
2022-08-10T03:22:08.576Z,22.31
2022-08-10T03:24:36.423Z,22.11
2022-08-10T03:27:05.215Z,21.95
2022-08-10T03:30:29.732Z,21.99
2022-08-10T03:32:20.735Z,22.16
2022-08-10T03:34:58.871Z,22.41
2022-08-10T03:37:38.312Z,22.28
2022-08-10T03:40:07.169Z,21.98
2022-08-10T03:42:37.348Z,22.15
2022-08-10T03:45:06.533Z,21.92
2022-08-10T03:47:34.622Z,22.11
2022-08-10T03:50:06.938Z,22.03
2022-08-10T03:52:55.287Z,22.22
2022-08-10T03:56:27.129Z,21.87
2022-08-10T03:58:10.938Z,21.99
2022-08-10T04:00:38.841Z,22.16
2022-08-10T04:03:06.431Z,22.24
2022-08-10T04:05:38.430Z,22.23
2022-08-10T04:08:10.875Z,21.90
2022-08-10T04:11:20.164Z,21.89
2022-08-10T04:13:46.811Z,22.12
2022-08-10T04:16:13.394Z,22.27
2022-08-10T04:18:40.004Z,22.27
2022-08-10T04:21:17.214Z,22.56
2022-08-10T04:23:51.155Z,22.32
2022-08-10T04:26:20.473Z,22.23
2022-08-10T04:28:50.863Z,22.31
2022-08-10T04:31:19.438Z,21.95
2022-08-10T04:33:49.815Z,22.41
2022-08-10T04:36:20.931Z,22.23
2022-08-10T04:38:52.522Z,21.84
2022-08-10T04:41:20.441Z,21.68
2022-08-10T04:44:12.531Z,22.08
2022-08-10T04:46:56.456Z,22.03
2022-08-10T04:49:55.344Z,21.71
2022-08-10T04:52:11.999Z,22.14
2022-08-10T04:54:38.727Z,22.02
2022-08-10T04:57:06.363Z,21.93
2022-08-10T04:59:33.156Z,22.65
2022-08-10T05:02:30.123Z,22.77
2022-08-10T05:04:55.505Z,22.64
2022-08-10T05:07:22.162Z,22.16
2022-08-10T05:10:04.991Z,22.57
2022-08-10T05:12:38.747Z,22.75
2022-08-10T05:15:14.045Z,22.66
2022-08-10T05:18:09.531Z,22.65
2022-08-10T05:22:04.014Z,22.77
2022-08-10T05:24:04.601Z,22.59
2022-08-10T05:26:31.833Z,22.89
2022-08-10T05:28:58.894Z,22.47
2022-08-10T05:31:25.614Z,22.93
2022-08-10T05:33:52.278Z,23.35
2022-08-10T05:36:28.561Z,23.41
2022-08-10T05:38:55.588Z,22.95
2022-08-10T05:41:22.722Z,23.35
2022-08-10T05:43:49.740Z,23.45
2022-08-10T05:46:21.046Z,23.08
2022-08-10T05:48:56.254Z,23.37
2022-08-10T05:51:27.153Z,23.26
2022-08-10T05:57:01.915Z,22.80
2022-08-10T06:00:33.269Z,22.70
2022-08-10T06:02:41.222Z,23.21
2022-08-10T06:05:11.451Z,23.56
2022-08-10T06:07:42.708Z,23.58
2022-08-10T06:10:13.882Z,23.66
2022-08-10T06:12:55.629Z,23.75
2022-08-10T06:15:51.801Z,23.53
2022-08-10T06:18:14.418Z,23.94
2022-08-10T06:20:42.184Z,23.69
2022-08-10T06:23:10.469Z,23.79
2022-08-10T06:26:11.793Z,23.96
2022-08-10T06:28:39.690Z,24.08
2022-08-10T06:31:07.846Z,24.23
2022-08-10T06:33:37.433Z,24.46
2022-08-10T06:36:07.543Z,24.38
2022-08-10T06:38:36.134Z,24.76
2022-08-10T06:41:24.385Z,24.29
2022-08-10T06:45:12.908Z,24.61
2022-08-10T06:47:46.783Z,24.58
2022-08-10T06:50:34.854Z,24.78
2022-08-10T06:53:17.878Z,24.82
2022-08-10T06:55:59.887Z,24.72
2022-08-10T06:58:52.304Z,24.46
2022-08-10T07:01:23.292Z,24.88
2022-08-10T07:04:06.730Z,25.70
2022-08-10T07:06:41.523Z,25.16
2022-08-10T07:09:10.764Z,24.86
2022-08-10T07:11:44.986Z,25.11
2022-08-10T07:14:16.843Z,24.89
2022-08-10T07:16:47.225Z,25.41
2022-08-10T07:19:14.901Z,25.28
2022-08-10T07:21:44.264Z,25.57
2022-08-10T07:24:14.894Z,25.59
2022-08-10T07:26:50.381Z,24.89
2022-08-10T07:29:26.794Z,24.74
2022-08-10T07:32:07.638Z,25.33
2022-08-10T07:34:36.584Z,25.72
2022-08-10T07:37:06.177Z,25.56
2022-08-10T07:39:57.999Z,25.24
2022-08-10T07:42:27.586Z,25.92
2022-08-10T07:44:58.172Z,25.61
2022-08-10T07:47:53.140Z,25.41
2022-08-10T07:50:20.488Z,25.52
2022-08-10T07:52:49.654Z,26.20
2022-08-10T07:55:19.610Z,26.35
2022-08-10T07:58:07.245Z,26.05
2022-08-10T08:00:35.197Z,26.07
2022-08-10T08:03:03.325Z,25.97
2022-08-10T08:05:58.485Z,26.42
2022-08-10T08:08:22.601Z,26.32
2022-08-10T08:10:50.818Z,26.52
2022-08-10T08:13:20.564Z,26.70
2022-08-10T08:16:17.797Z,26.19
2022-08-10T08:18:38.177Z,26.68
2022-08-10T08:24:02.124Z,26.40
2022-08-10T08:24:16.095Z,26.56
2022-08-10T08:26:49.315Z,27.01
2022-08-10T08:29:20.967Z,26.78
2022-08-10T08:32:02.144Z,26.40
2022-08-10T08:34:36.478Z,26.45
2022-08-10T08:37:05.359Z,27.36
2022-08-10T08:39:33.679Z,26.75
2022-08-10T08:42:28.310Z,27.04
2022-08-10T08:45:10.323Z,26.94
2022-08-10T08:48:04.720Z,27.67
2022-08-10T08:51:11.085Z,28.15
2022-08-10T08:54:01.777Z,27.39
2022-08-10T08:56:38.735Z,27.93
2022-08-10T08:59:21.152Z,27.99
2022-08-10T09:01:58.619Z,28.00
2022-08-10T09:04:47.104Z,28.11
2022-08-10T09:08:01.229Z,28.22
2022-08-10T09:10:37.341Z,28.19
2022-08-10T09:13:12.965Z,28.10
2022-08-10T09:15:45.432Z,28.75
2022-08-10T09:18:25.494Z,28.93
2022-08-10T09:21:30.702Z,28.48
2022-08-10T09:24:06.352Z,29.06
2022-08-10T09:26:47.081Z,28.45
2022-08-10T09:29:17.447Z,29.02
2022-08-10T09:32:54.990Z,29.24
2022-08-10T09:36:25.997Z,28.62
2022-08-10T09:38:02.300Z,29.24
2022-08-10T09:41:00.368Z,28.97
2022-08-10T09:44:03.110Z,28.85
2022-08-10T09:46:30.765Z,29.08
2022-08-10T09:49:11.980Z,28.70
2022-08-10T09:51:57.263Z,28.95
2022-08-10T09:55:02.653Z,28.17
2022-08-10T09:57:57.646Z,28.57
2022-08-10T10:00:33.468Z,28.93
2022-08-10T10:03:24.060Z,29.12
2022-08-10T10:06:17.002Z,28.52
2022-08-10T10:09:10.485Z,28.84
2022-08-10T10:11:46.336Z,28.46
2022-08-10T10:17:54.511Z,28.76
2022-08-10T10:20:32.975Z,29.42
2022-08-10T10:23:19.342Z,29.97
2022-08-10T10:26:17.707Z,30.42
2022-08-10T10:35:55.431Z,29.93
2022-08-10T10:38:29.645Z,30.41
2022-08-10T10:41:14.574Z,30.52
2022-08-10T10:43:59.832Z,29.22
2022-08-10T10:46:54.112Z,29.15
2022-08-10T10:50:18.624Z,29.94
2022-08-10T10:53:06.981Z,30.05
2022-08-10T11:01:15.718Z,29.92
2022-08-10T11:04:10.255Z,30.43
2022-08-10T11:10:32.646Z,30.03
2022-08-10T11:14:28.535Z,29.99
2022-08-10T11:16:05.748Z,30.53
2022-08-10T11:18:33.864Z,30.76
2022-08-10T11:21:18.809Z,30.11
2022-08-10T11:24:48.124Z,30.15
2022-08-10T11:27:21.626Z,30.37
2022-08-10T11:32:55.903Z,30.82
2022-08-10T11:35:40.796Z,30.62
2022-08-10T11:39:04.039Z,31.05
2022-08-10T11:42:09.927Z,30.74
2022-08-10T11:44:57.200Z,31.19
2022-08-10T11:47:34.035Z,31.41
2022-08-10T11:50:06.256Z,30.15
2022-08-10T11:52:43.594Z,30.73
2022-08-10T11:55:22.199Z,30.72
2022-08-10T11:57:53.870Z,30.34
2022-08-10T12:00:22.835Z,30.15
2022-08-10T12:02:55.281Z,30.33
2022-08-10T12:10:05.958Z,30.75
2022-08-10T12:10:55.015Z,30.66
2022-08-10T12:13:31.833Z,30.48
2022-08-10T12:16:09.018Z,30.99
2022-08-10T12:19:04.575Z,30.51
2022-08-10T12:21:42.805Z,30.56
2022-08-10T12:24:18.732Z,30.54
2022-08-10T12:30:46.862Z,30.95
2022-08-10T12:34:01.787Z,30.07
2022-08-10T12:36:38.205Z,30.93
2022-08-10T12:39:25.219Z,31.26
2022-08-10T12:53:31.723Z,30.31
2022-08-10T12:55:58.623Z,30.85
2022-08-10T12:59:00.151Z,30.31
2022-08-10T13:01:17.169Z,29.89
2022-08-10T13:04:20.437Z,30.39
2022-08-10T13:06:51.023Z,30.42
2022-08-10T13:09:25.198Z,30.05
2022-08-10T13:12:38.365Z,29.82
2022-08-10T13:15:28.171Z,30.55
2022-08-10T13:18:02.836Z,30.67
2022-08-10T13:20:36.480Z,30.12
2022-08-10T13:23:09.841Z,30.81
2022-08-10T13:25:39.439Z,31.08
2022-08-10T13:28:36.087Z,30.81
2022-08-10T13:31:05.959Z,30.57
2022-08-10T13:34:39.390Z,30.67
2022-08-10T13:36:31.095Z,30.18
2022-08-10T13:44:51.274Z,29.16
2022-08-10T13:47:19.383Z,29.96
2022-08-10T13:52:28.055Z,29.92
2022-08-10T13:54:59.186Z,29.92
2022-08-10T13:57:28.676Z,29.49
2022-08-10T14:00:34.255Z,29.74
2022-08-10T14:03:12.572Z,29.44
2022-08-10T14:06:02.606Z,30.54
2022-08-10T14:08:32.427Z,30.10
2022-08-10T14:11:11.322Z,29.75
2022-08-10T14:13:45.570Z,29.67
2022-08-10T14:18:53.209Z,30.11
2022-08-10T14:21:22.219Z,29.41
2022-08-10T14:23:52.092Z,29.55
2022-08-10T14:26:25.406Z,29.20
2022-08-10T14:28:59.289Z,29.96
2022-08-10T14:31:35.322Z,30.10
2022-08-10T14:37:03.388Z,30.09
2022-08-10T14:39:53.898Z,29.74
2022-08-10T14:42:35.513Z,29.54
2022-08-10T14:45:11.500Z,29.83
2022-08-10T14:47:52.653Z,29.78
2022-08-10T14:50:31.717Z,30.27
2022-08-10T14:53:09.316Z,30.05
2022-08-10T14:55:58.979Z,29.90
2022-08-10T14:58:30.344Z,29.94
2022-08-10T15:00:58.997Z,29.96
2022-08-10T15:04:02.459Z,29.52
2022-08-10T15:06:20.753Z,29.42
2022-08-10T15:09:19.219Z,29.68
2022-08-10T15:12:15.514Z,29.37
2022-08-10T15:14:47.078Z,29.56
2022-08-10T15:17:23.653Z,29.42
2022-08-10T15:25:04.816Z,29.12
2022-08-10T15:27:53.701Z,29.67
2022-08-10T15:30:39.497Z,29.77
2022-08-10T15:34:02.744Z,29.30
2022-08-10T15:36:38.416Z,29.48
2022-08-10T15:41:57.741Z,29.63
2022-08-10T15:44:45.628Z,29.31
2022-08-10T15:51:06.533Z,28.76
2022-08-10T15:53:49.152Z,29.32
2022-08-10T15:57:05.715Z,28.88
2022-08-10T15:59:43.296Z,29.30
2022-08-10T16:02:17.186Z,29.77
2022-08-10T16:05:40.852Z,29.62
2022-08-10T16:08:28.789Z,30.08
2022-08-10T16:11:03.069Z,30.28
2022-08-10T16:13:50.644Z,29.55
2022-08-10T16:16:21.070Z,29.34
2022-08-10T16:18:51.207Z,29.59
2022-08-10T16:25:48.102Z,29.46
2022-08-10T16:28:29.379Z,29.24
2022-08-10T16:30:58.078Z,29.19
2022-08-10T16:33:54.624Z,29.02
2022-08-10T16:36:20.687Z,29.85
2022-08-10T16:38:50.594Z,29.16
2022-08-10T16:42:00.788Z,29.62
2022-08-10T16:44:10.541Z,29.45
2022-08-10T16:46:42.144Z,29.41
2022-08-10T16:49:10.857Z,29.46
2022-08-10T16:51:39.853Z,29.54
2022-08-10T16:54:09.100Z,29.62
2022-08-10T16:56:48.812Z,29.57
2022-08-10T16:59:20.623Z,29.79
2022-08-10T17:01:51.664Z,29.16
2022-08-10T17:04:23.608Z,29.10
2022-08-10T17:06:59.833Z,29.00
2022-08-10T17:09:29.596Z,28.89
2022-08-10T17:11:58.461Z,28.41
2022-08-10T17:14:28.583Z,28.79
2022-08-10T17:17:03.275Z,28.98
2022-08-10T17:19:35.958Z,29.23
2022-08-10T17:22:10.738Z,29.03
2022-08-10T17:24:43.541Z,29.16
2022-08-10T17:28:05.822Z,28.79
2022-08-10T17:30:03.716Z,28.38
2022-08-10T17:32:44.096Z,28.37
2022-08-10T17:35:14.437Z,28.65
2022-08-10T17:38:10.036Z,28.33
2022-08-10T17:40:51.630Z,28.34
2022-08-10T17:43:58.505Z,27.96
2022-08-10T17:46:14.535Z,28.18
2022-08-10T17:48:42.916Z,28.11
2022-08-10T17:51:14.006Z,28.71
2022-08-10T17:53:51.177Z,28.23
2022-08-10T17:56:20.452Z,28.41
2022-08-10T17:58:54.028Z,28.29
2022-08-10T18:01:38.881Z,28.24
2022-08-10T18:04:18.109Z,28.25
2022-08-10T18:06:51.693Z,28.03
2022-08-10T18:09:29.407Z,27.93
2022-08-10T18:12:00.775Z,28.39
2022-08-10T18:14:33.812Z,28.19
2022-08-10T18:17:09.217Z,28.31
2022-08-10T18:19:37.359Z,28.32
2022-08-10T18:22:05.693Z,28.50
2022-08-10T18:24:33.316Z,28.25
2022-08-10T18:27:04.599Z,28.17
2022-08-10T18:29:33.778Z,28.33
2022-08-10T18:32:02.618Z,28.53
2022-08-10T18:34:32.595Z,28.58
2022-08-10T18:37:00.805Z,28.55
2022-08-10T18:39:36.386Z,28.60
2022-08-10T18:42:16.241Z,28.57
2022-08-10T18:44:51.852Z,28.52
2022-08-10T18:47:28.893Z,28.44
2022-08-10T18:50:05.571Z,28.47
2022-08-10T18:52:34.580Z,28.47
2022-08-10T18:55:46.215Z,28.41
2022-08-10T18:58:49.819Z,28.49
2022-08-10T19:01:28.770Z,28.50
2022-08-10T19:04:13.466Z,28.46
2022-08-10T19:06:55.024Z,28.43
2022-08-10T19:09:46.475Z,28.37
2022-08-10T19:12:32.366Z,28.31
2022-08-10T19:15:18.251Z,28.17
2022-08-10T19:18:29.414Z,27.93
2022-08-10T19:20:55.951Z,27.93
2022-08-10T19:23:37.734Z,27.78
2022-08-10T19:26:44.646Z,27.77
2022-08-10T19:30:11.860Z,27.81
2022-08-10T19:32:55.162Z,27.74
2022-08-10T19:35:30.560Z,27.63
2022-08-10T19:38:33.194Z,27.50
2022-08-10T19:41:18.570Z,27.25
2022-08-10T19:44:00.981Z,27.21
2022-08-10T19:46:40.048Z,27.21
2022-08-10T19:49:15.570Z,27.12
2022-08-10T19:51:57.387Z,26.94
2022-08-10T19:54:44.118Z,26.88
2022-08-10T19:57:24.873Z,26.42
2022-08-10T20:00:18.801Z,26.51
2022-08-10T20:03:15.606Z,26.79
2022-08-10T20:06:12.989Z,26.61
2022-08-10T20:08:59.104Z,26.57
2022-08-10T20:11:47.457Z,25.95
2022-08-10T20:14:23.322Z,25.77
2022-08-10T20:16:56.266Z,26.02
2022-08-10T20:19:53.568Z,26.32
2022-08-10T20:22:30.485Z,26.47
2022-08-10T20:25:02.199Z,26.45
2022-08-10T20:27:57.663Z,26.23
2022-08-10T20:30:31.406Z,26.29
2022-08-10T20:33:17.364Z,26.16
2022-08-10T20:35:43.901Z,26.16
2022-08-10T20:38:19.583Z,26.40
2022-08-10T20:41:01.553Z,26.60
2022-08-10T20:43:52.263Z,26.66
2022-08-10T20:46:30.864Z,26.57
2022-08-10T20:49:25.718Z,26.60
2022-08-10T20:51:58.882Z,25.71
2022-08-10T20:54:48.807Z,26.02
2022-08-10T20:57:54.275Z,25.75
2022-08-10T21:00:23.394Z,25.63
2022-08-10T21:02:50.041Z,25.07
2022-08-10T21:05:16.571Z,25.30
2022-08-10T21:08:01.274Z,24.73
2022-08-10T21:10:46.962Z,24.78
2022-08-10T21:13:25.660Z,24.59
2022-08-10T21:16:03.481Z,24.76
2022-08-10T21:21:44.496Z,25.28
2022-08-10T21:24:34.066Z,25.23
2022-08-10T21:27:13.310Z,25.32
2022-08-10T21:30:23.182Z,25.17
2022-08-10T21:33:09.111Z,24.77
2022-08-10T21:35:44.390Z,25.00
2022-08-10T21:38:53.860Z,24.71
2022-08-10T21:42:02.633Z,24.36
2022-08-10T21:45:07.752Z,23.99
2022-08-10T21:48:23.677Z,24.06
2022-08-10T21:51:24.308Z,24.87
2022-08-10T21:54:46.108Z,24.17
2022-08-10T21:57:43.397Z,24.05
2022-08-10T22:00:32.456Z,23.81
2022-08-10T22:03:20.941Z,23.89
2022-08-10T22:06:09.946Z,24.12
2022-08-10T22:09:11.277Z,24.07
2022-08-10T22:12:03.206Z,24.06
2022-08-10T22:14:54.457Z,24.05
2022-08-10T22:20:54.811Z,24.67
2022-08-10T22:23:40.638Z,24.45
2022-08-10T22:26:36.645Z,24.74
2022-08-10T22:29:42.654Z,24.72
2022-08-10T22:31:24.473Z,25.06
2022-08-10T22:31:27.693Z,24.46
2022-08-10T22:32:43.820Z,24.76
2022-08-10T22:35:57.028Z,24.48
2022-08-10T22:39:12.896Z,24.17
2022-08-10T22:42:01.415Z,24.76
2022-08-10T22:44:52.366Z,24.54
2022-08-10T22:47:39.943Z,24.85
2022-08-10T22:50:10.564Z,24.55
2022-08-10T22:53:02.945Z,24.96
2022-08-10T22:55:53.587Z,25.15
2022-08-10T22:58:39.370Z,25.17
2022-08-10T23:02:07.323Z,25.27
2022-08-10T23:04:47.320Z,25.24
2022-08-10T23:07:13.958Z,25.18
2022-08-10T23:09:42.953Z,25.15
2022-08-10T23:12:16.196Z,25.10
2022-08-10T23:15:00.071Z,24.96
2022-08-10T23:18:02.158Z,24.91
2022-08-10T23:20:30.887Z,24.59
2022-08-10T23:23:08.987Z,24.74
2022-08-10T23:25:57.348Z,24.84
2022-08-10T23:28:58.642Z,24.20
2022-08-10T23:32:01.428Z,24.44
2022-08-10T23:34:19.687Z,24.42
2022-08-10T23:36:49.877Z,24.29
2022-08-10T23:39:26.098Z,24.56
2022-08-10T23:41:57.059Z,24.49
2022-08-10T23:44:43.484Z,24.08
2022-08-10T23:47:23.040Z,24.33
2022-08-10T23:49:54.822Z,24.24
2022-08-10T23:52:24.958Z,24.47
2022-08-10T23:54:56.062Z,24.12
2022-08-10T23:57:25.224Z,24.17
2022-08-10T23:59:59.981Z,23.82
